createdAt,value
2023-04-20T00:00:37.857Z,4.68
2023-04-20T00:01:40.510Z,4.30
2023-04-20T00:02:42.749Z,4.63
2023-04-20T00:03:45.621Z,4.55
2023-04-20T00:04:47.295Z,4.32
2023-04-20T00:05:50.305Z,4.15
2023-04-20T00:06:51.998Z,4.50
2023-04-20T00:07:55.412Z,4.85
2023-04-20T00:08:56.980Z,4.30
2023-04-20T00:09:59.467Z,4.55
2023-04-20T00:11:02.834Z,5.10
2023-04-20T00:12:06.006Z,6.00
2023-04-20T00:13:07.542Z,5.53
2023-04-20T00:14:10.090Z,5.03
2023-04-20T00:15:11.754Z,4.80
2023-04-20T00:16:14.312Z,5.47
2023-04-20T00:17:15.941Z,4.80
2023-04-20T00:18:18.485Z,5.28
2023-04-20T00:19:23.193Z,5.00
2023-04-20T00:20:25.760Z,4.53
2023-04-20T00:21:27.813Z,5.28
2023-04-20T00:22:31.060Z,5.22
2023-04-20T00:23:32.586Z,5.28
2023-04-20T00:24:35.442Z,5.20
2023-04-20T00:25:37.099Z,5.45
2023-04-20T00:26:41.094Z,4.68
2023-04-20T00:27:42.666Z,5.43
2023-04-20T00:28:45.679Z,5.15
2023-04-20T00:29:47.233Z,5.13
2023-04-20T00:30:50.237Z,4.97
2023-04-20T00:31:51.888Z,5.53
2023-04-20T00:32:54.438Z,5.32
2023-04-20T00:33:59.148Z,5.68
2023-04-20T00:35:04.650Z,5.18
2023-04-20T00:36:06.799Z,5.15
2023-04-20T00:37:09.690Z,5.07
2023-04-20T00:38:11.303Z,6.00
2023-04-20T00:39:14.064Z,5.35
2023-04-20T00:40:15.848Z,5.18
2023-04-20T00:41:18.408Z,5.25
2023-04-20T00:42:21.463Z,5.53
2023-04-20T00:43:24.040Z,5.53
2023-04-20T00:44:25.951Z,5.75
2023-04-20T00:45:28.465Z,5.25
2023-04-20T00:46:30.088Z,6.28
2023-04-20T00:47:32.656Z,5.72
2023-04-20T00:48:34.240Z,5.80
2023-04-20T00:49:36.822Z,5.35
2023-04-20T00:50:39.972Z,4.90
2023-04-20T00:51:42.986Z,4.90
2023-04-20T00:52:45.548Z,5.13
2023-04-20T00:53:48.055Z,5.53
2023-04-20T00:54:50.876Z,5.60
2023-04-20T00:55:52.473Z,5.95
2023-04-20T00:56:56.135Z,7.60
2023-04-20T00:57:59.170Z,5.95
2023-04-20T00:59:03.080Z,6.18
2023-04-20T01:00:07.631Z,5.28
2023-04-20T01:01:10.895Z,6.05
2023-04-20T01:02:12.581Z,6.05
2023-04-20T01:03:15.287Z,6.43
2023-04-20T01:04:17.517Z,6.57
2023-04-20T01:05:21.105Z,9.18
2023-04-20T01:06:22.815Z,6.55
2023-04-20T01:07:25.381Z,6.25
2023-04-20T01:08:27.394Z,6.72
2023-04-20T01:09:30.448Z,7.07
2023-04-20T01:10:32.023Z,6.93
2023-04-20T01:11:34.634Z,6.80
2023-04-20T01:12:36.334Z,7.32
2023-04-20T01:13:40.746Z,7.38
2023-04-20T01:14:42.431Z,7.35
2023-04-20T01:15:45.034Z,7.47
2023-04-20T01:16:47.249Z,7.45
2023-04-20T01:17:50.078Z,8.90
2023-04-20T01:18:51.765Z,8.25
2023-04-20T01:19:54.310Z,9.13
2023-04-20T01:20:55.854Z,8.00
2023-04-20T01:21:58.369Z,9.43
2023-04-20T01:23:01.610Z,7.97
2023-04-20T01:24:04.250Z,7.95
2023-04-20T01:25:07.404Z,8.27
2023-04-20T01:26:11.149Z,8.65
2023-04-20T01:27:13.626Z,8.48
2023-04-20T01:28:16.185Z,8.43
2023-04-20T01:29:18.033Z,7.95
2023-04-20T01:30:20.777Z,8.77
2023-04-20T01:31:22.733Z,8.50
2023-04-20T01:32:25.805Z,8.80
2023-04-20T01:33:27.471Z,10.88
2023-04-20T01:34:30.010Z,9.35
2023-04-20T01:35:31.593Z,8.55
2023-04-20T01:36:34.153Z,9.43
2023-04-20T01:37:36.032Z,10.55
2023-04-20T01:38:40.411Z,10.02
2023-04-20T01:39:42.084Z,9.35
2023-04-20T01:40:44.623Z,9.88
2023-04-20T01:41:47.420Z,8.85
2023-04-20T01:42:48.948Z,9.85
2023-04-20T01:43:51.506Z,10.00
2023-04-20T01:44:53.076Z,10.95
2023-04-20T01:45:55.590Z,10.98
2023-04-20T01:46:57.217Z,10.13
2023-04-20T01:47:59.751Z,9.75
2023-04-20T01:49:01.341Z,10.50
2023-04-20T01:50:03.911Z,9.60
2023-04-20T01:51:05.824Z,10.30
2023-04-20T01:52:08.453Z,10.30
2023-04-20T01:53:10.448Z,9.15
2023-04-20T01:54:14.364Z,10.90
2023-04-20T01:55:17.058Z,10.35
2023-04-20T01:56:20.465Z,10.88
2023-04-20T01:57:22.011Z,10.27
2023-04-20T01:58:24.751Z,9.85
2023-04-20T01:59:26.348Z,11.70
2023-04-20T02:00:28.820Z,9.40
2023-04-20T02:01:30.381Z,12.15
2023-04-20T02:02:33.164Z,9.35
2023-04-20T02:03:34.896Z,11.35
2023-04-20T02:04:37.720Z,10.00
2023-04-20T02:05:39.310Z,9.82
2023-04-20T02:06:41.888Z,10.75
2023-04-20T02:07:43.509Z,10.65
2023-04-20T02:08:45.998Z,10.27
2023-04-20T02:09:48.919Z,9.52
2023-04-20T02:10:51.437Z,9.63
2023-04-20T02:11:52.982Z,9.52
2023-04-20T02:12:55.695Z,10.82
2023-04-20T02:13:57.437Z,10.07
2023-04-20T02:14:59.954Z,10.27
2023-04-20T02:16:01.466Z,10.68
2023-04-20T02:17:04.024Z,12.27
2023-04-20T02:18:05.862Z,10.55
2023-04-20T02:19:08.768Z,10.38
2023-04-20T02:20:12.570Z,11.63
2023-04-20T02:21:15.111Z,10.68
2023-04-20T02:22:18.615Z,10.82
2023-04-20T02:23:21.105Z,10.23
2023-04-20T02:24:22.677Z,10.65
2023-04-20T02:25:26.588Z,11.57
2023-04-20T02:26:28.132Z,10.45
2023-04-20T02:27:30.765Z,10.23
2023-04-20T02:28:32.317Z,10.93
2023-04-20T02:29:34.847Z,9.50
2023-04-20T02:30:37.339Z,11.30
2023-04-20T02:31:38.916Z,10.60
2023-04-20T02:32:41.813Z,9.52
2023-04-20T02:33:44.151Z,10.65
2023-04-20T02:34:46.708Z,10.00
2023-04-20T02:35:48.288Z,9.70
2023-04-20T02:36:51.045Z,12.73
2023-04-20T02:37:52.589Z,10.48
2023-04-20T02:38:55.117Z,10.20
2023-04-20T02:39:56.690Z,10.20
2023-04-20T02:41:00.585Z,10.30
2023-04-20T02:42:02.343Z,9.85
2023-04-20T02:43:04.829Z,12.23
2023-04-20T02:44:06.742Z,10.50
2023-04-20T02:45:11.116Z,10.38
2023-04-20T02:46:12.666Z,10.15
2023-04-20T02:47:15.233Z,10.65
2023-04-20T02:48:16.808Z,10.27
2023-04-20T02:49:19.549Z,10.50
2023-04-20T02:50:21.317Z,10.73
2023-04-20T02:51:23.856Z,10.27
2023-04-20T02:52:25.961Z,12.93
2023-04-20T02:53:28.454Z,10.52
2023-04-20T02:54:30.004Z,11.10
2023-04-20T02:55:32.730Z,10.32
2023-04-20T02:56:35.906Z,10.93
2023-04-20T02:57:38.435Z,10.60
2023-04-20T02:58:40.004Z,12.07
2023-04-20T02:59:43.214Z,12.45
2023-04-20T03:00:44.742Z,12.68
2023-04-20T03:01:47.307Z,11.52
2023-04-20T03:02:49.157Z,12.00
2023-04-20T03:03:52.240Z,11.38
2023-04-20T03:04:54.173Z,12.07
2023-04-20T03:05:57.332Z,11.25
2023-04-20T03:07:00.548Z,14.23
2023-04-20T03:08:05.172Z,11.73
2023-04-20T03:09:12.929Z,11.55
2023-04-20T03:10:15.398Z,11.10
2023-04-20T03:11:16.953Z,11.07
2023-04-20T03:12:22.297Z,10.70
2023-04-20T03:13:23.986Z,12.38
2023-04-20T03:14:26.883Z,11.93
2023-04-20T03:15:28.461Z,12.65
2023-04-20T03:16:30.989Z,13.98
2023-04-20T03:17:32.606Z,13.65
2023-04-20T03:18:35.278Z,11.35
2023-04-20T03:19:37.067Z,12.15
2023-04-20T03:20:40.313Z,12.00
2023-04-20T03:21:41.870Z,11.95
2023-04-20T03:22:44.377Z,12.45
2023-04-20T03:23:46.270Z,11.63
2023-04-20T03:24:50.290Z,12.07
2023-04-20T03:25:54.123Z,11.10
2023-04-20T03:27:00.868Z,11.98
2023-04-20T03:28:03.848Z,13.05
2023-04-20T03:29:06.329Z,10.68
2023-04-20T03:30:09.652Z,11.57
2023-04-20T03:31:12.104Z,11.18
2023-04-20T03:32:13.715Z,11.45
2023-04-20T03:33:16.308Z,9.93
2023-04-20T03:34:17.876Z,10.00
2023-04-20T03:35:21.311Z,10.48
2023-04-20T03:36:23.913Z,10.15
2023-04-20T03:37:25.738Z,9.20
2023-04-20T03:38:28.283Z,9.55
2023-04-20T03:39:29.819Z,9.70
2023-04-20T03:40:32.314Z,10.32
2023-04-20T03:41:33.880Z,9.40
2023-04-20T03:42:37.149Z,10.73
2023-04-20T03:43:41.691Z,9.30
2023-04-20T03:44:44.283Z,8.93
2023-04-20T03:45:45.979Z,9.23
2023-04-20T03:46:48.463Z,10.18
2023-04-20T03:47:50.172Z,8.52
2023-04-20T03:48:52.763Z,8.10
2023-04-20T03:49:54.311Z,10.00
2023-04-20T03:50:56.849Z,8.60
2023-04-20T03:51:58.346Z,9.73
2023-04-20T03:53:00.885Z,9.52
2023-04-20T03:54:02.505Z,8.35
2023-04-20T03:55:05.511Z,8.88
2023-04-20T03:56:07.691Z,8.77
2023-04-20T03:57:10.317Z,8.60
2023-04-20T03:58:15.086Z,8.45
2023-04-20T03:59:19.038Z,8.10
2023-04-20T04:00:20.854Z,8.63
2023-04-20T04:01:23.352Z,8.65
2023-04-20T04:02:25.221Z,9.05
2023-04-20T04:03:28.021Z,10.68
2023-04-20T04:04:30.096Z,9.27
2023-04-20T04:05:32.717Z,9.10
2023-04-20T04:06:35.367Z,8.80
2023-04-20T04:07:37.131Z,9.73
2023-04-20T04:08:39.571Z,8.77
2023-04-20T04:09:41.265Z,8.88
2023-04-20T04:10:43.687Z,8.48
2023-04-20T04:11:45.216Z,8.82
2023-04-20T04:12:47.698Z,8.43
2023-04-20T04:13:49.476Z,10.25
2023-04-20T04:14:53.324Z,8.77
2023-04-20T04:15:54.966Z,8.48
2023-04-20T04:16:57.415Z,8.10
2023-04-20T04:17:59.072Z,8.10
2023-04-20T04:19:01.752Z,8.90
2023-04-20T04:20:03.725Z,7.95
2023-04-20T04:21:08.137Z,9.00
2023-04-20T04:22:10.587Z,8.30
2023-04-20T04:23:12.087Z,9.02
2023-04-20T04:24:15.302Z,7.43
2023-04-20T04:25:17.435Z,8.20
2023-04-20T04:26:21.409Z,7.97
2023-04-20T04:27:23.447Z,9.07
2023-04-20T04:28:26.430Z,11.30
2023-04-20T04:29:27.927Z,9.70
2023-04-20T04:30:32.064Z,9.27
2023-04-20T04:31:34.294Z,12.23
2023-04-20T04:32:36.800Z,10.27
2023-04-20T04:33:38.379Z,8.93
2023-04-20T04:34:44.246Z,8.98
2023-04-20T04:35:46.080Z,11.98
2023-04-20T04:36:48.520Z,11.57
2023-04-20T04:37:50.029Z,9.50
2023-04-20T04:38:52.739Z,9.50
2023-04-20T04:39:54.242Z,9.18
2023-04-20T04:40:57.509Z,9.63
2023-04-20T04:41:58.978Z,9.38
2023-04-20T04:43:01.538Z,11.52
2023-04-20T04:44:03.538Z,10.73
2023-04-20T04:45:07.401Z,9.60
2023-04-20T04:46:12.393Z,10.52
2023-04-20T04:47:15.939Z,11.02
2023-04-20T04:48:17.452Z,10.35
2023-04-20T04:49:20.702Z,9.85
2023-04-20T04:50:23.444Z,9.48
2023-04-20T04:51:25.876Z,11.15
2023-04-20T04:52:28.354Z,10.57
2023-04-20T04:53:31.193Z,10.32
2023-04-20T04:54:32.662Z,10.38
2023-04-20T04:55:35.313Z,12.32
2023-04-20T04:56:36.831Z,10.38
2023-04-20T04:57:39.474Z,10.13
2023-04-20T04:58:41.164Z,11.95
2023-04-20T04:59:43.612Z,9.50
2023-04-20T05:00:46.082Z,10.10
2023-04-20T05:01:49.020Z,8.52
2023-04-20T05:02:53.028Z,12.20
2023-04-20T05:03:54.816Z,9.98
2023-04-20T05:04:57.668Z,11.48
2023-04-20T05:05:59.195Z,10.45
2023-04-20T05:07:01.604Z,12.90
2023-04-20T05:08:03.088Z,9.15
2023-04-20T05:09:05.618Z,12.05
2023-04-20T05:10:08.378Z,10.93
2023-04-20T05:11:10.836Z,11.25
2023-04-20T05:12:12.377Z,11.48
2023-04-20T05:13:14.835Z,10.93
2023-04-20T05:14:16.398Z,11.85
2023-04-20T05:15:19.072Z,12.35
2023-04-20T05:16:20.820Z,9.05
2023-04-20T05:17:24.908Z,10.75
2023-04-20T05:18:26.483Z,9.43
2023-04-20T05:19:29.009Z,11.00
2023-04-20T05:20:30.490Z,10.93
2023-04-20T05:21:33.225Z,11.02
2023-04-20T05:22:34.721Z,10.98
2023-04-20T05:23:37.221Z,10.85
2023-04-20T05:24:38.715Z,13.55
2023-04-20T05:25:41.534Z,11.65
2023-04-20T05:26:43.355Z,11.10
2023-04-20T05:27:46.233Z,10.50
2023-04-20T05:28:47.777Z,11.65
2023-04-20T05:29:50.782Z,9.95
2023-04-20T05:30:55.065Z,12.10
2023-04-20T05:31:57.598Z,10.52
2023-04-20T05:33:00.575Z,11.82
2023-04-20T05:34:03.093Z,12.75
2023-04-20T05:35:05.336Z,9.93
2023-04-20T05:36:09.792Z,10.38
2023-04-20T05:37:12.071Z,9.95
2023-04-20T05:38:14.552Z,11.75
2023-04-20T05:39:16.676Z,10.48
2023-04-20T05:40:19.589Z,9.93
2023-04-20T05:41:26.658Z,11.55
2023-04-20T05:42:29.416Z,12.93
2023-04-20T05:43:31.197Z,12.23
2023-04-20T05:44:36.397Z,11.27
2023-04-20T05:45:39.233Z,11.57
2023-04-20T05:46:40.798Z,10.73
2023-04-20T05:47:43.285Z,12.52
2023-04-20T05:48:46.604Z,10.10
2023-04-20T05:49:49.037Z,9.75
2023-04-20T05:50:50.576Z,10.73
2023-04-20T05:51:53.014Z,15.45
2023-04-20T05:52:54.520Z,10.93
2023-04-20T05:53:57.030Z,11.25
2023-04-20T05:54:59.463Z,11.50
2023-04-20T05:56:02.455Z,11.07
2023-04-20T05:57:05.800Z,10.20
2023-04-20T05:58:07.419Z,10.82
2023-04-20T05:59:10.208Z,9.73
2023-04-20T06:00:13.496Z,11.77
2023-04-20T06:01:15.963Z,11.10
2023-04-20T06:02:17.517Z,10.85
2023-04-20T06:03:20.126Z,9.77
2023-04-20T06:04:23.421Z,9.50
2023-04-20T06:05:26.361Z,8.77
2023-04-20T06:06:28.074Z,8.73
2023-04-20T06:07:30.640Z,9.15
2023-04-20T06:08:32.183Z,8.05
2023-04-20T06:09:34.641Z,7.70
2023-04-20T06:10:36.268Z,8.75
2023-04-20T06:11:38.703Z,7.47
2023-04-20T06:12:40.222Z,8.38
2023-04-20T06:13:42.732Z,6.75
2023-04-20T06:14:44.258Z,8.45
2023-04-20T06:15:47.202Z,8.02
2023-04-20T06:16:48.698Z,7.72
2023-04-20T06:17:51.276Z,6.45
2023-04-20T06:18:52.834Z,8.55
2023-04-20T06:19:56.761Z,7.43
2023-04-20T06:20:58.362Z,6.22
2023-04-20T06:22:01.285Z,6.28
2023-04-20T06:23:04.009Z,8.30
2023-04-20T06:24:06.213Z,10.02
2023-04-20T06:25:09.452Z,8.48
2023-04-20T06:26:11.236Z,10.98
2023-04-20T06:27:14.024Z,9.00
2023-04-20T06:28:16.602Z,9.35
2023-04-20T06:29:18.461Z,7.15
2023-04-20T06:30:21.204Z,10.57
2023-04-20T06:31:22.772Z,7.95
2023-04-20T06:32:25.278Z,9.23
2023-04-20T06:33:27.912Z,7.93
2023-04-20T06:34:29.517Z,9.90
2023-04-20T06:35:33.322Z,7.85
2023-04-20T06:36:34.807Z,7.72
2023-04-20T06:37:37.422Z,8.57
2023-04-20T06:38:40.713Z,7.97
2023-04-20T06:39:42.222Z,8.50
2023-04-20T06:40:44.657Z,9.38
2023-04-20T06:41:47.141Z,8.25
2023-04-20T06:42:48.738Z,8.07
2023-04-20T06:43:51.654Z,8.50
2023-04-20T06:44:53.161Z,8.75
2023-04-20T06:45:55.678Z,9.63
2023-04-20T06:46:57.297Z,9.48
2023-04-20T06:47:59.832Z,11.13
2023-04-20T06:49:01.419Z,9.10
2023-04-20T06:50:07.262Z,8.77
2023-04-20T06:51:13.536Z,8.30
2023-04-20T06:52:15.037Z,8.65
2023-04-20T06:53:17.883Z,10.63
2023-04-20T06:54:19.377Z,9.57
2023-04-20T06:55:22.024Z,9.02
2023-04-20T06:56:24.711Z,8.25
2023-04-20T06:57:26.320Z,8.20
2023-04-20T06:58:28.796Z,7.60
2023-04-20T06:59:30.309Z,7.93
2023-04-20T07:00:32.802Z,7.20
2023-04-20T07:01:34.384Z,7.75
2023-04-20T07:02:44.320Z,7.47
2023-04-20T07:03:46.820Z,6.75
2023-04-20T07:04:49.665Z,8.32
2023-04-20T07:05:51.451Z,8.00
2023-04-20T07:06:55.356Z,7.70
2023-04-20T07:07:57.028Z,6.65
2023-04-20T07:08:59.508Z,8.35
2023-04-20T07:10:01.958Z,10.43
2023-04-20T07:11:04.422Z,9.00
2023-04-20T07:12:06.159Z,8.27
2023-04-20T07:13:08.851Z,9.40
2023-04-20T07:14:11.288Z,9.00
2023-04-20T07:15:13.226Z,9.68
2023-04-20T07:16:16.878Z,9.85
2023-04-20T07:17:19.493Z,9.75
2023-04-20T07:18:21.010Z,8.40
2023-04-20T07:19:23.566Z,9.02
2023-04-20T07:20:25.551Z,8.32
2023-04-20T07:21:28.104Z,11.00
2023-04-20T07:22:33.266Z,8.20
2023-04-20T07:23:35.758Z,7.75
2023-04-20T07:24:37.290Z,7.70
2023-04-20T07:25:39.712Z,7.80
2023-04-20T07:26:42.272Z,8.18
2023-04-20T07:27:43.949Z,7.30
2023-04-20T07:28:46.437Z,8.80
2023-04-20T07:29:47.949Z,7.20
2023-04-20T07:30:50.446Z,7.22
2023-04-20T07:31:51.977Z,6.63
2023-04-20T07:32:54.497Z,6.57
2023-04-20T07:33:56.198Z,6.70
2023-04-20T07:34:58.740Z,6.70
2023-04-20T07:36:00.337Z,6.32
2023-04-20T07:37:02.879Z,7.55
2023-04-20T07:38:06.197Z,6.90
2023-04-20T07:39:08.772Z,6.68
2023-04-20T07:40:11.286Z,6.72
2023-04-20T07:41:13.706Z,6.72
2023-04-20T07:42:15.199Z,6.82
2023-04-20T07:43:17.670Z,6.85
2023-04-20T07:44:19.209Z,6.82
2023-04-20T07:45:25.351Z,5.90
2023-04-20T07:46:28.384Z,6.72
2023-04-20T07:47:31.083Z,7.18
2023-04-20T07:48:33.702Z,6.30
2023-04-20T07:49:37.684Z,6.30
2023-04-20T07:50:40.373Z,7.63
2023-04-20T07:51:41.946Z,7.10
2023-04-20T07:52:45.240Z,7.50
2023-04-20T07:53:48.120Z,8.35
2023-04-20T07:54:50.768Z,7.55
2023-04-20T07:55:53.244Z,7.45
2023-04-20T07:56:54.792Z,7.43
2023-04-20T07:57:57.740Z,7.60
2023-04-20T07:58:59.263Z,7.68
2023-04-20T08:00:01.729Z,7.95
2023-04-20T08:01:03.403Z,7.78
2023-04-20T08:02:06.106Z,8.30
2023-04-20T08:03:09.037Z,7.70
2023-04-20T08:04:10.937Z,7.45
2023-04-20T08:05:14.055Z,7.90
2023-04-20T08:06:15.641Z,12.98
2023-04-20T08:07:18.132Z,12.50
2023-04-20T08:08:19.708Z,8.30
2023-04-20T08:09:23.858Z,8.70
2023-04-20T08:10:26.412Z,9.82
2023-04-20T08:11:28.202Z,9.15
2023-04-20T08:12:30.724Z,8.05
2023-04-20T08:13:32.253Z,7.68
2023-04-20T08:14:34.708Z,8.02
2023-04-20T08:15:37.418Z,7.03
2023-04-20T08:16:39.025Z,7.47
2023-04-20T08:17:42.590Z,8.30
2023-04-20T08:18:44.149Z,8.55
2023-04-20T08:19:46.591Z,8.85
2023-04-20T08:20:51.072Z,7.97
2023-04-20T08:21:56.452Z,9.40
2023-04-20T08:22:59.523Z,9.65
2023-04-20T08:24:01.239Z,9.00
2023-04-20T08:25:05.885Z,8.80
2023-04-20T08:26:08.524Z,11.82
2023-04-20T08:27:10.174Z,10.20
2023-04-20T08:28:24.259Z,10.43
2023-04-20T08:29:35.244Z,10.38
2023-04-20T08:30:37.727Z,10.50
2023-04-20T08:31:40.248Z,11.25
2023-04-20T08:32:42.191Z,9.95
2023-04-20T08:33:44.717Z,11.65
2023-04-20T08:34:47.260Z,9.10
2023-04-20T08:35:51.343Z,8.27
2023-04-20T08:36:53.777Z,8.27
2023-04-20T08:37:55.304Z,8.77
2023-04-20T08:39:05.981Z,8.75
2023-04-20T08:40:11.352Z,6.88
2023-04-20T08:41:13.651Z,8.27
2023-04-20T08:42:16.919Z,9.15
2023-04-20T08:43:19.200Z,10.20
2023-04-20T08:44:24.008Z,9.23
2023-04-20T08:45:25.631Z,9.15
2023-04-20T08:46:28.620Z,11.02
2023-04-20T08:47:32.316Z,8.95
2023-04-20T08:48:36.373Z,10.77
2023-04-20T08:49:39.633Z,9.90
2023-04-20T08:50:42.341Z,9.90
2023-04-20T08:51:45.786Z,10.50
2023-04-20T08:52:48.261Z,10.00
2023-04-20T08:53:50.315Z,10.55
2023-04-20T08:54:56.798Z,11.90
2023-04-20T08:56:01.668Z,10.70
2023-04-20T08:57:04.157Z,10.98
2023-04-20T08:58:06.667Z,12.38
2023-04-20T08:59:10.329Z,10.25
2023-04-20T09:00:14.248Z,9.50
2023-04-20T09:01:20.041Z,8.30
2023-04-20T09:02:25.565Z,8.98
2023-04-20T09:03:35.870Z,9.38
2023-04-20T09:04:37.828Z,9.75
2023-04-20T09:05:41.518Z,9.27
2023-04-20T09:06:47.593Z,11.10
2023-04-20T09:07:52.791Z,9.25
2023-04-20T09:08:56.095Z,9.05
2023-04-20T09:09:59.370Z,9.98
2023-04-20T09:11:03.380Z,10.07
2023-04-20T09:12:07.684Z,10.35
2023-04-20T09:13:10.960Z,10.35
2023-04-20T09:14:16.626Z,10.35
2023-04-20T09:15:25.619Z,10.32
2023-04-20T09:16:28.313Z,12.65
2023-04-20T09:17:35.108Z,10.65
2023-04-20T09:18:36.731Z,10.88
2023-04-20T09:19:39.178Z,10.27
2023-04-20T09:20:41.009Z,11.48
2023-04-20T09:21:50.031Z,10.73
2023-04-20T09:22:51.557Z,10.55
2023-04-20T09:24:01.457Z,11.05
2023-04-20T09:25:13.847Z,7.38
2023-04-20T09:26:18.942Z,9.10
2023-04-20T09:27:22.662Z,8.32
2023-04-20T09:28:25.304Z,11.70
2023-04-20T09:29:26.859Z,10.00
2023-04-20T09:30:39.021Z,9.23
2023-04-20T09:31:41.490Z,9.50
2023-04-20T09:32:43.116Z,8.30
2023-04-20T09:33:45.690Z,8.55
2023-04-20T09:34:48.242Z,9.05
2023-04-20T09:35:50.782Z,9.93
2023-04-20T09:36:55.928Z,7.35
2023-04-20T09:37:57.655Z,9.20
2023-04-20T09:39:04.821Z,7.65
2023-04-20T09:40:09.181Z,15.82
2023-04-20T09:41:11.925Z,8.40
2023-04-20T09:42:16.321Z,8.60
2023-04-20T09:43:20.044Z,8.00
2023-04-20T09:44:22.586Z,8.02
2023-04-20T09:45:25.478Z,8.77
2023-04-20T09:46:30.503Z,7.75
2023-04-20T09:47:36.747Z,7.80
2023-04-20T09:48:38.349Z,8.10
2023-04-20T09:49:41.082Z,8.93
2023-04-20T09:50:49.700Z,10.43
2023-04-20T09:51:53.494Z,8.55
2023-04-20T09:52:55.356Z,8.90
2023-04-20T09:53:58.650Z,7.72
2023-04-20T09:55:00.404Z,8.65
2023-04-20T09:56:03.384Z,8.25
2023-04-20T09:57:06.010Z,11.60
2023-04-20T09:58:09.839Z,9.48
2023-04-20T09:59:12.668Z,9.40
2023-04-20T10:00:15.241Z,8.05
2023-04-20T10:01:18.009Z,10.10
2023-04-20T10:02:19.851Z,9.05
2023-04-20T10:03:22.603Z,8.90
2023-04-20T10:04:24.627Z,9.80
2023-04-20T10:05:35.716Z,9.27
2023-04-20T10:06:38.986Z,10.60
2023-04-20T10:07:44.378Z,11.00
2023-04-20T10:08:47.596Z,9.80
2023-04-20T10:09:49.377Z,9.45
2023-04-20T10:10:52.399Z,9.65
2023-04-20T10:12:05.588Z,10.13
2023-04-20T10:13:08.103Z,9.50
2023-04-20T10:14:20.762Z,9.70
2023-04-20T10:15:24.990Z,10.00
2023-04-20T10:16:28.151Z,10.13
2023-04-20T10:17:30.908Z,9.73
2023-04-20T10:18:33.769Z,10.07
2023-04-20T10:19:40.911Z,9.45
2023-04-20T10:20:43.732Z,9.55
2023-04-20T10:21:48.347Z,9.63
2023-04-20T10:22:51.254Z,14.55
2023-04-20T10:23:54.591Z,9.60
2023-04-20T10:24:56.408Z,10.90
2023-04-20T10:26:01.129Z,10.13
2023-04-20T10:27:04.025Z,11.07
2023-04-20T10:28:09.739Z,11.90
2023-04-20T10:29:13.305Z,12.30
2023-04-20T10:30:17.940Z,11.15
2023-04-20T10:31:22.022Z,10.25
2023-04-20T10:32:25.315Z,13.30
2023-04-20T10:33:28.184Z,10.50
2023-04-20T10:34:31.145Z,10.20
2023-04-20T10:35:46.147Z,10.25
2023-04-20T10:36:48.662Z,13.43
2023-04-20T10:37:51.703Z,10.48
2023-04-20T10:38:57.216Z,11.52
2023-04-20T10:40:00.192Z,14.85
2023-04-20T10:41:08.320Z,10.25
2023-04-20T10:42:22.912Z,10.38
2023-04-20T10:43:24.489Z,13.73
2023-04-20T10:44:27.527Z,10.70
2023-04-20T10:45:37.114Z,11.07
2023-04-20T10:46:39.895Z,11.63
2023-04-20T10:47:41.715Z,11.27
2023-04-20T10:48:54.410Z,12.63
2023-04-20T10:50:06.694Z,12.63
2023-04-20T10:51:10.395Z,9.57
2023-04-20T10:52:13.026Z,10.60
2023-04-20T10:53:19.531Z,10.48
2023-04-20T10:54:22.044Z,14.48
2023-04-20T10:55:25.517Z,12.65
2023-04-20T10:56:28.073Z,10.52
2023-04-20T10:57:33.830Z,11.05
2023-04-20T10:58:35.343Z,11.00
2023-04-20T10:59:39.028Z,10.13
2023-04-20T11:00:43.150Z,10.30
2023-04-20T11:01:47.139Z,11.10
2023-04-20T11:02:50.270Z,13.15
2023-04-20T11:03:53.035Z,22.92
2023-04-20T11:05:01.020Z,11.35
2023-04-20T11:06:03.996Z,12.93
2023-04-20T11:07:08.952Z,11.48
2023-04-20T11:08:16.723Z,12.93
2023-04-20T11:09:20.856Z,11.30
2023-04-20T11:10:25.895Z,11.70
2023-04-20T11:11:28.291Z,14.80
2023-04-20T11:12:39.538Z,14.05
2023-04-20T11:13:41.054Z,12.32
2023-04-20T11:14:53.100Z,12.55
2023-04-20T11:15:56.173Z,13.40
2023-04-20T11:16:58.983Z,11.20
2023-04-20T11:18:07.707Z,10.85
2023-04-20T11:19:10.291Z,10.27
2023-04-20T11:20:16.289Z,9.82
2023-04-20T11:21:21.799Z,11.27
2023-04-20T11:22:24.421Z,9.93
2023-04-20T11:23:37.751Z,12.90
2023-04-20T11:24:41.304Z,11.30
2023-04-20T11:25:49.153Z,13.48
2023-04-20T11:26:54.126Z,11.48
2023-04-20T11:28:05.306Z,10.40
2023-04-20T11:29:08.325Z,12.80
2023-04-20T11:30:11.291Z,11.43
2023-04-20T11:31:18.655Z,9.55
2023-04-20T11:32:21.437Z,10.07
2023-04-20T11:33:29.254Z,9.75
2023-04-20T11:34:31.928Z,9.38
2023-04-20T11:35:38.780Z,11.30
2023-04-20T11:36:41.730Z,8.63
2023-04-20T11:37:46.981Z,9.85
2023-04-20T11:38:50.853Z,10.73
2023-04-20T11:39:59.741Z,9.57
2023-04-20T11:41:05.449Z,9.75
2023-04-20T11:42:10.468Z,10.73
2023-04-20T11:43:12.015Z,9.23
2023-04-20T11:44:15.332Z,10.80
2023-04-20T11:45:18.584Z,10.32
2023-04-20T11:46:21.523Z,8.75
2023-04-20T11:47:24.220Z,9.77
2023-04-20T11:48:26.005Z,12.73
2023-04-20T11:49:29.730Z,10.38
2023-04-20T11:50:32.307Z,10.25
2023-04-20T11:51:33.812Z,10.15
2023-04-20T11:52:38.644Z,10.43
2023-04-20T11:53:40.786Z,8.38
2023-04-20T11:54:43.270Z,13.80
2023-04-20T11:55:44.915Z,8.70
2023-04-20T11:56:47.718Z,9.98
2023-04-20T11:57:51.619Z,11.10
2023-04-20T11:58:53.392Z,9.70
2023-04-20T11:59:56.108Z,9.38
2023-04-20T12:00:58.992Z,12.25
2023-04-20T12:02:04.097Z,16.25
2023-04-20T12:03:07.332Z,11.75
2023-04-20T12:04:10.759Z,15.35
2023-04-20T12:05:12.701Z,13.13
2023-04-20T12:06:15.367Z,13.23
2023-04-20T12:07:17.075Z,13.57
2023-04-20T12:08:20.059Z,13.15
2023-04-20T12:09:21.810Z,13.90
2023-04-20T12:10:24.614Z,17.48
2023-04-20T12:11:26.362Z,13.43
2023-04-20T12:12:28.841Z,13.35
2023-04-20T12:13:30.507Z,13.00
2023-04-20T12:14:34.453Z,12.30
2023-04-20T12:15:36.914Z,12.68
2023-04-20T12:16:39.469Z,10.95
2023-04-20T12:17:43.371Z,15.02
2023-04-20T12:18:44.960Z,12.60
2023-04-20T12:19:47.797Z,15.55
2023-04-20T12:20:50.264Z,10.90
2023-04-20T12:21:52.844Z,13.35
2023-04-20T12:22:55.977Z,10.98
2023-04-20T12:23:59.726Z,13.20
2023-04-20T12:25:04.239Z,13.88
2023-04-20T12:26:06.575Z,15.25
2023-04-20T12:27:09.101Z,12.82
2023-04-20T12:28:16.523Z,15.77
2023-04-20T12:29:21.954Z,10.48
2023-04-20T12:30:23.681Z,11.63
2023-04-20T12:31:26.745Z,12.50
2023-04-20T12:32:28.501Z,11.55
2023-04-20T12:33:32.369Z,10.85
2023-04-20T12:34:33.909Z,10.57
2023-04-20T12:35:36.355Z,11.30
2023-04-20T12:36:38.153Z,10.90
2023-04-20T12:37:40.976Z,13.65
2023-04-20T12:38:42.529Z,12.52
2023-04-20T12:39:45.045Z,12.48
2023-04-20T12:40:47.736Z,7.78
2023-04-20T12:41:49.350Z,8.02
2023-04-20T12:42:51.817Z,7.75
2023-04-20T12:43:53.417Z,10.30
2023-04-20T12:44:56.477Z,8.93
2023-04-20T12:45:58.029Z,11.52
2023-04-20T12:47:00.611Z,12.13
2023-04-20T12:48:02.625Z,11.48
2023-04-20T12:49:06.527Z,10.30
2023-04-20T12:50:08.827Z,10.85
2023-04-20T12:51:11.380Z,11.48
2023-04-20T12:52:13.159Z,11.07
2023-04-20T12:53:15.810Z,9.52
2023-04-20T12:54:17.877Z,11.45
2023-04-20T12:55:20.588Z,10.05
2023-04-20T12:56:23.112Z,10.93
2023-04-20T12:57:24.822Z,10.30
2023-04-20T12:58:27.297Z,9.40
2023-04-20T12:59:29.817Z,8.80
2023-04-20T13:00:31.612Z,9.10
2023-04-20T13:01:34.228Z,11.15
2023-04-20T13:02:36.488Z,11.90
2023-04-20T13:03:39.343Z,12.55
2023-04-20T13:04:42.365Z,9.30
2023-04-20T13:05:45.428Z,9.77
2023-04-20T13:06:46.956Z,10.90
2023-04-20T13:07:49.418Z,10.45
2023-04-20T13:08:53.682Z,11.23
2023-04-20T13:09:56.231Z,11.70
2023-04-20T13:10:58.664Z,10.25
2023-04-20T13:12:00.432Z,12.77
2023-04-20T13:13:03.384Z,16.58
2023-04-20T13:14:06.027Z,12.23
2023-04-20T13:15:09.350Z,12.02
2023-04-20T13:16:12.183Z,11.00
2023-04-20T13:17:13.775Z,10.85
2023-04-20T13:18:16.928Z,11.70
2023-04-20T13:19:19.447Z,12.70
2023-04-20T13:20:22.350Z,12.93
2023-04-20T13:21:24.942Z,11.52
2023-04-20T13:22:26.567Z,11.30
2023-04-20T13:23:29.088Z,17.52
2023-04-20T13:24:30.827Z,12.63
2023-04-20T13:25:34.255Z,14.73
2023-04-20T13:26:35.996Z,15.27
2023-04-20T13:27:38.675Z,13.43
2023-04-20T13:28:40.263Z,12.48
2023-04-20T13:29:43.465Z,14.35
2023-04-20T13:30:45.038Z,16.02
2023-04-20T13:31:48.635Z,16.27
2023-04-20T13:32:50.299Z,15.32
2023-04-20T13:33:54.443Z,18.73
2023-04-20T13:34:56.177Z,19.65
2023-04-20T13:36:03.186Z,17.13
2023-04-20T13:37:04.788Z,17.58
2023-04-20T13:38:07.540Z,16.42
2023-04-20T13:39:09.933Z,17.17
2023-04-20T13:40:12.966Z,18.20
2023-04-20T13:41:15.169Z,18.77
2023-04-20T13:42:17.705Z,18.77
2023-04-20T13:43:20.835Z,18.23
2023-04-20T13:44:24.244Z,18.58
2023-04-20T13:45:26.201Z,20.15